LKKU METAR and TAF | Updated Today

LKKU METAR

Kunovice Airport

Observation time: 68 min. ago

LKKU 251800Z 36005KT 9999 FEW016 15/12 Q1017

Need help? Read our tutorial on how to read METARs or read the parsed version below.

Kunovice Airport (LKKU) METAR

  • Weather conditions on Wed, 25 May 2022 18:00:00 +0000 (68 min. ago):
  • Present conditions: Dry
  • Clouds: A few at 488 meters
  • Visibility: Greater than 10 km
  • Wind: 360 degrees at 5 knots
  • Temperature: 15 celsius
  • Dew point: 12 celsius
  • Pressure: 1017 millibars
  • Remarks: None


Useful to know...